Main page
METAR-TAF:

METAR-TAF

Airports :

Amman Civil Airport

Amman, Jordan

latitude: 31-59N, longitude: 035-59E, elevation: 767 m

Current weather observation

The report was made 48 minutes ago, at 07:15 UTC
Wind 4 kt from the East/Northeast
Temperature 3°C
Humidity 81%
Pressure 1022 hPa
Visibility: 5000 m
mist

METAR: OJAM 200715Z 07004KT 5000 BR NSC 03/00 Q1022 NOSIG

Time: 10:03 (08:03 UTC)

Forecast

The report was made 3 hours and 50 minutes ago, at 04:13 UTC
Forecast valid from 20 at 06 UTC to 21 at 12 UTC
Wind 10 kt from the Southeast
Visibility: 5000 m
haze
Probability 30% :
Temporary
from 20 at 19 UTC to 21 at 08 UTC
Visibility: 3000 m
Scattered clouds at a height of 5000 ft
Broken clouds at a height of 8000 ft
light rain showers, mist
Becoming
from 21 at 08 UTC to 21 at 10 UTC
Wind 10 kt from the West
Visibility: 6000 m
Scattered clouds at a height of 4000 ft

TAF: OJAM 200413Z 2006/2112 13010KT 5000 HZ NSC PROB30 TEMPO 2019/2108 3000 -SHRA BR SCT050 BKN080 BECMG 2108/2110 27010KT 6000 SCT040

Weather observations and forecasts of more than 4000 airports (METAR and TAF reports).

The available stations are represented by yellow and red dots on the map.

Hover mouse over dot to see the name of the station.

Then click to see weather observations and forecasts.

To change the map : click on the green buttons with a black cross to zoom in, on the green button with a dash to zoom out, or on the green arrows for adjacent maps.


METAR-TAF: